Data for 10/23/2014

Time Sea-Level Adjusted Pressure Absolute Pressure Temperature Relative Humidity Dew Point   
(mb) (inHg) (mb) (inHg) (C) (F) (%) (C) (F)
00:05 1017 30.03 847 25.01 6.2 43.1 46 -4.6 23.7
00:10 1017 30.03 846 24.98 6.3 43.3 46 -4.5 23.9
00:15 1017 30.03 846 24.98 6.2 43.1 47 -4.3 24.3
00:20 1017 30.03 846 24.98 6.1 42.9 46 -4.6 23.7
00:25 1017 30.03 846 24.98 6.2 43.1 46 -4.6 23.8
00:30 1017 30.03 846 24.98 6.1 43 46 -4.6 23.8
00:35 1017 30.03 846 24.98 6.1 43 46 -4.6 23.7
00:40 1017 30.03 846 24.98 6.1 42.9 47 -4.3 24.2
00:45 1017 30.03 846 24.98 5.9 42.6 48 -4.4 24.2
00:50 1017 30.03 846 24.98 6 42.8 46 -4.9 23.3
00:55 1017 30.03 846 24.98 6.3 43.4 45 -4.8 23.4
01:00 1017 30.03 846 24.98 6.3 43.4 46 -4.3 24.2
01:05 1017 30.03 846 24.98 6.4 43.5 44 -4.9 23.1
01:10 1017 30.03 846 24.98 6.5 43.7 45 -4.7 23.6
01:15 1017 30.03 846 24.98 6.6 43.9 43 -4.9 23.1
01:20 1017 30.03 846 24.98 6.6 43.9 44 -4.6 23.7
01:25 1017 30.03 846 24.98 6.5 43.7 46 -4.4 24
01:30 1017 30.03 846 24.98 6.4 43.5 45 -4.7 23.6
01:35 1017 30.03 846 24.98 6.5 43.7 44 -4.8 23.4
01:40 1017 30.03 846 24.98 6.9 44.4 43 -4.8 23.4
01:45 1017 30.03 846 24.98 7.1 44.7 42 -4.9 23.1
01:50 1017 30.03 846 24.98 7.2 44.9 42 -4.7 23.5
01:55 1017 30.03 846 24.98 7.1 44.8 43 -4.6 23.6
02:00 1017 30.03 846 24.98 7 44.6 44 -4.4 24.1
02:05 1017 30.03 846 24.98 6.9 44.4 43 -4.7 23.6
02:10 1017 30.03 846 24.98 6.8 44.3 44 -4.5 24
02:15 1017 30.03 846 24.98 6.9 44.4 43 -4.9 23.1
02:20 1017 30.03 847 25.01 7 44.6 43 -4.7 23.6
02:25 1017 30.03 847 25.01 7.1 44.8 44 -4.4 24.2
02:30 1017 30.03 846 24.98 6.9 44.4 46 -3.8 25.1
02:35 1017 30.03 846 24.98 6.5 43.7 46 -4.3 24.2
02:40 1017 30.03 846 24.98 6.7 44.1 44 -4.5 23.9
02:45 1017 30.03 846 24.98 6.9 44.5 45 -4.1 24.6
02:50 1017 30.03 846 24.98 6.9 44.3 47 -3.6 25.5
02:55 1017 30.03 846 24.98 6.5 43.7 45 -4.5 24
03:00 1017 30.03 846 24.98 6.9 44.4 49 -3 26.6
03:05 1017 30.03 846 24.98 6.5 43.7 45 -4.6 23.7
03:10 1017 30.03 846 24.98 7 44.6 41 -5.3 22.4
03:15 1017 30.03 846 24.98 7.7 45.8 41 -4.9 23.2
03:20 1017 30.03 846 24.98 7.5 45.5 45 -3.7 25.3
03:25 1017 30.03 846 24.98 6.7 44 49 -3.2 26.2
03:30 1017 30.03 846 24.98 5.9 42.6 51 -3.3 26
03:35 1017 30.03 846 24.98 6 42.7 48 -4.3 24.3
03:40 1017 30.03 846 24.98 6.8 44.2 45 -4.3 24.3
03:45 1017 30.03 846 24.98 7.2 45 47 -3.4 25.8
03:50 1017 30.03 846 24.98 6.9 44.5 47 -3.7 25.4
03:55 1017 30.03 846 24.98 7.2 45 44 -4.1 24.6
04:00 1017 30.03 846 24.98 8 46.5 43 -3.8 25.2
04:05 1017 30.03 846 24.98 8 46.3 44 -3.6 25.5
04:10 1017 30.03 846 24.98 9 48.2 41 -3.7 25.4
04:15 1017 30.03 846 24.98 9.3 48.7 41 -3.2 26.3
04:20 1017 30.03 846 24.98 8.7 47.7 44 -2.7 27.1
04:25 1017 30.03 846 24.98 7.9 46.3 45 -3.1 26.4
04:30 1017 30.03 846 24.98 7.7 45.9 47 -2.9 26.7
04:35 1017 30.03 846 24.98 7.5 45.5 48 -2.9 26.8
04:40 1017 30.03 846 24.98 7.6 45.6 47 -3.1 26.4
04:45 1017 30.03 846 24.98 8.2 46.7 46 -2.7 27.2
04:50 1017 30.03 846 24.98 8.6 47.5 44 -2.9 26.9
04:55 1017 30.03 846 24.98 9.6 49.3 43 -2.2 28
05:00 1016 30 846 24.98 9.8 49.6 43 -2.1 28.3
05:05 1016 30 846 24.98 10.1 50.2 43 -1.8 28.8
05:10 1016 30 846 24.98 10.3 50.5 44 -1.5 29.3
05:15 1016 30 846 24.98 10.3 50.5 45 -1.2 29.8
05:20 1016 30 846 24.98 10.3 50.5 45 -1.1 30
05:25 1016 30 845 24.95 9.9 49.9 48 -0.5 31.1
05:30 1016 30 845 24.95 10.1 50.1 46 -1.1 30.1
05:35 1016 30 845 24.95 10.4 50.8 45 -1 30.3
05:40 1016 30 845 24.95 10.4 50.6 46 -0.8 30.6
05:45 1016 30 845 24.95 10.2 50.4 46 -0.9 30.4
05:50 1016 30 845 24.95 10.4 50.6 45 -1 30.2
05:55 1016 30 845 24.95 10.4 50.7 46 -0.7 30.7
06:00 1016 30 845 24.95 10.1 50.2 47 -0.5 31
06:05 1016 30 845 24.95 10.1 50.1 47 -0.8 30.6
06:10 1016 30 845 24.95 10.3 50.5 46 -0.7 30.7
06:15 1016 30 845 24.95 10.3 50.5 47 -0.5 31.1
06:20 1016 30 845 24.95 10.1 50.3 47 -0.6 30.9
06:25 1016 30 845 24.95 10.3 50.6 46 -0.8 30.5
06:30 1016 30 845 24.95 10.6 51.1 45 -0.8 30.5
06:35 1016 30 845 24.95 10.8 51.4 44 -0.8 30.5
06:40 1016 30 845 24.95 10.9 51.6 44 -0.7 30.7
06:45 1016 30 845 24.95 10.9 51.6 45 -0.7 30.8
06:50 1016 30 845 24.95 10.8 51.5 44 -0.7 30.7
06:55 1016 30 845 24.95 10.7 51.3 46 -0.5 31.1
07:00 1016 30 845 24.95 10.5 51 46 -0.6 31
07:05 1016 30 846 24.98 10.4 50.7 46 -0.7 30.8
07:10 1016 30 846 24.98 10.5 50.9 46 -0.6 31
07:15 1016 30 846 24.98 10.3 50.6 47 -0.5 31.2
07:20 1017 30.03 846 24.98 10.1 50.3 48 -0.4 31.3
07:25 1017 30.03 846 24.98 10 50 48 -0.5 31.1
07:30 1017 30.03 846 24.98 9.9 49.8 48 -0.5 31
07:35 1017 30.03 846 24.98 10.3 50.5 44 -1.5 29.4
07:40 1017 30.03 846 24.98 11.1 52 42 -1.2 29.9
07:45 1017 30.03 846 24.98 11.2 52.1 43 -1 30.2
07:50 1017 30.03 846 24.98 11.2 52.2 41 -1.3 29.6
07:55 1017 30.03 846 24.98 11.3 52.4 40 -1.6 29.1
08:00 1017 30.03 846 24.98 11.6 52.8 40 -1.4 29.5
08:05 1017 30.03 846 24.98 12 53.5 40 -1.3 29.6
08:10 1017 30.03 846 24.98 12 53.6 41 -0.7 30.7
08:15 1017 30.03 846 24.98 11.8 53.2 39 -1.5 29.3
08:20 1017 30.03 846 24.98 12.2 54 38 -1.8 28.8
08:25 1017 30.03 846 24.98 12.8 55.1 35 -2 28.4
08:30 1017 30.03 846 24.98 13.1 55.6 36 -1.5 29.2
08:35 1017 30.03 846 24.98 13.2 55.8 35 -1.7 28.9
08:40 1017 30.03 846 24.98 13.2 55.7 35 -1.7 28.9
08:45 1017 30.03 846 24.98 13 55.4 35 -2 28.4
08:50 1017 30.03 846 24.98 13.1 55.5 37 -1.4 29.5
08:55 1017 30.03 846 24.98 13.1 55.5 36 -1.5 29.3
09:00 1017 30.03 846 24.98 13.1 55.6 36 -1.4 29.5
09:05 1017 30.03 846 24.98 13.2 55.7 36 -1.5 29.3
09:10 1017 30.03 846 24.98 13.2 55.8 35 -1.7 28.9
09:15 1017 30.03 846 24.98 13.2 55.7 36 -1.6 29.1
09:20 1017 30.03 846 24.98 13.2 55.8 35 -1.8 28.7
09:25 1017 30.03 846 24.98 13.3 55.9 35 -1.8 28.8
09:30 1017 30.03 846 24.98 13.3 56 36 -1.2 29.8
09:35 1017 30.03 846 24.98 13.4 56.2 37 -1 30.2
09:40 1017 30.03 847 25.01 13.5 56.2 38 -0.5 31.1
09:45 1017 30.03 847 25.01 13.3 56 40 0.1 32.2
09:50 1017 30.03 847 25.01 13.4 56.1 35 -1.5 29.3
09:55 1017 30.03 847 25.01 13.8 56.8 35 -1.1 29.9
10:00 1017 30.03 847 25.01 13.9 57 35 -1.3 29.6
10:05 1017 30.03 847 25.01 13.9 57 36 -0.8 30.6
10:10 1017 30.03 847 25.01 13.8 56.9 35 -1.4 29.4
10:15 1017 30.03 847 25.01 13.9 56.9 34 -1.6 29.1
10:20 1017 30.03 846 24.98 13.9 57 34 -1.4 29.4
10:25 1017 30.03 846 24.98 13.9 57 35 -1.4 29.5
10:30 1017 30.03 846 24.98 13.9 56.9 34 -1.5 29.3
10:35 1017 30.03 846 24.98 13.9 57 34 -1.7 28.9
10:40 1017 30.03 846 24.98 13.9 57.1 34 -1.8 28.8
10:45 1017 30.03 846 24.98 14 57.2 34 -1.7 29
10:50 1017 30.03 846 24.98 14.1 57.4 33 -1.7 28.9
10:55 1017 30.03 846 24.98 14.3 57.8 33 -1.6 29.2
11:00 1017 30.03 846 24.98 14.5 58.2 33 -1.4 29.5
11:05 1017 30.03 846 24.98 14.7 58.5 32 -1.5 29.2
11:10 1017 30.03 846 24.98 14.9 58.9 32 -1.4 29.5
11:15 1017 30.03 846 24.98 15.2 59.3 33 -1 30.2
11:20 1017 30.03 846 24.98 15.5 59.9 33 -0.7 30.7
11:25 1017 30.03 846 24.98 15.9 60.6 32 -0.6 31
11:30 1017 30.03 846 24.98 16.3 61.3 28 -1.9 28.5
11:35 1017 30.03 846 24.98 17 62.6 27 -2 28.4
11:40 1017 30.03 846 24.98 17.2 63 27 -1.9 28.6
11:45 1017 30.03 846 24.98 16.9 62.4 27 -2.3 27.9
11:50 1017 30.03 846 24.98 16.6 62 28 -1.8 28.7
11:55 1017 30.03 846 24.98 16.6 61.9 27 -2.6 27.3
12:00 1017 30.03 846 24.98 16.9 62.3 27 -2.2 28.1
12:05 1017 30.03 846 24.98 16.9 62.4 27 -2.3 27.8
12:10 1017 30.03 846 24.98 16.7 62.1 28 -1.5 29.2
12:15 1017 30.03 846 24.98 16.6 61.8 28 -1.8 28.7
12:20 1017 30.03 846 24.98 16.7 62 28 -1.7 28.9
12:25 1017 30.03 846 24.98 16.9 62.5 27 -2.1 28.2
12:30 1017 30.03 846 24.98 16.8 62.2 28 -1.9 28.6
12:35 1016 30 846 24.98 16.3 61.3 29 -1.6 29
12:40 1016 30 845 24.95 16.1 61 27 -2.6 27.2
12:45 1016 30 845 24.95 16.3 61.3 27 -2.5 27.6
12:50 1016 30 845 24.95 16.4 61.4 27 -2.5 27.5
12:55 1016 30 845 24.95 16.4 61.6 27 -2.3 27.9
13:00 1016 30 845 24.95 16.8 62.3 27 -2.1 28.3
13:05 1016 30 845 24.95 17.2 63 26 -2.5 27.6
13:10 1016 30 845 24.95 17.3 63.1 26 -2.3 27.9
13:15 1016 30 845 24.95 17.2 62.9 27 -2.1 28.2
13:20 1016 30 845 24.95 17 62.6 27 -2.2 28
13:25 1016 30 845 24.95 17.2 62.9 25 -2.7 27.2
13:30 1016 30 845 24.95 17.3 63.1 26 -2.2 28.1
13:35 1016 30 845 24.95 17 62.6 26 -2.3 27.8
13:40 1016 30 845 24.95 16.8 62.3 27 -2 28.5
13:45 1015 29.97 845 24.95 16.5 61.6 28 -2 28.3
13:50 1016 30 845 24.95 16.5 61.6 26 -2.9 26.8
13:55 1016 30 845 24.95 16.5 61.7 27 -2.6 27.3
14:00 1016 30 845 24.95 16.6 61.8 26 -3 26.6
14:05 1016 30 845 24.95 16.8 62.2 27 -2.3 27.8
14:10 1016 30 845 24.95 17 62.7 25 -3.1 26.5
14:15 1016 30 845 24.95 17.5 63.6 24 -2.9 26.8
14:20 1016 30 845 24.95 17.8 64 24 -3.2 26.3
14:25 1016 30 845 24.95 18 64.3 23 -3.4 25.9
14:30 1016 30 845 24.95 18.1 64.6 24 -2.5 27.5
14:35 1015 29.97 845 24.95 17.9 64.1 24 -2.6 27.2
14:40 1015 29.97 845 24.95 17.4 63.4 25 -2.4 27.6
14:45 1015 29.97 845 24.95 17 62.7 26 -2.3 27.9
14:50 1015 29.97 844 24.92 16.7 62 28 -2 28.4
14:55 1015 29.97 844 24.92 16.4 61.6 27 -2.4 27.7
15:00 1015 29.97 844 24.92 16.5 61.7 27 -2.3 27.8
15:05 1015 29.97 844 24.92 16.5 61.7 27 -2.6 27.4
15:10 1015 29.97 844 24.92 16.5 61.6 26 -3.2 26.2
15:15 1015 29.97 844 24.92 16.5 61.7 27 -2.6 27.3
15:20 1015 29.97 844 24.92 16.4 61.6 26 -2.8 27
15:25 1015 29.97 844 24.92 16.6 61.9 28 -2.1 28.2
15:30 1015 29.97 844 24.92 16.5 61.6 27 -2.6 27.3
15:35 1015 29.97 844 24.92 16.4 61.5 28 -2.2 28
15:40 1015 29.97 844 24.92 16.2 61.2 29 -2 28.5
15:45 1015 29.97 844 24.92 16 60.7 28 -2.3 27.8
15:50 1015 29.97 844 24.92 15.9 60.6 28 -2.3 27.9
15:55 1015 29.97 844 24.92 16 60.8 29 -2.1 28.2
16:00 1015 29.97 844 24.92 16 60.9 29 -1.8 28.8
16:05 1015 29.97 844 24.92 16 60.9 29 -1.8 28.8
16:10 1015 29.97 844 24.92 15.9 60.7 30 -1.4 29.5
16:15 1015 29.97 844 24.92 15.7 60.2 30 -1.6 29.2
16:20 1015 29.97 844 24.92 15.6 60.1 30 -2 28.4
16:25 1015 29.97 844 24.92 15.6 60.1 30 -1.9 28.7
16:30 1015 29.97 845 24.95 15.2 59.3 31 -1.8 28.7
16:35 1015 29.97 845 24.95 14.9 58.9 30 -2.5 27.5
16:40 1015 29.97 845 24.95 15 58.9 30 -2.5 27.5
16:45 1016 30 845 24.95 14.8 58.6 29 -2.8 27
16:50 1016 30 845 24.95 14.9 58.8 29 -2.9 26.8
16:55 1016 30 845 24.95 15.1 59.2 28 -3.2 26.2
17:00 1016 30 845 24.95 15.1 59.2 29 -2.9 26.7
17:05 1016 30 845 24.95 15.1 59.2 28 -3.3 26.1
17:10 1016 30 845 24.95 15.1 59.2 28 -3.1 26.4
17:15 1016 30 845 24.95 15.2 59.3 28 -3 26.6
17:20 1016 30 845 24.95 15 59.1 28 -3.2 26.2
17:25 1016 30 845 24.95 15 59.1 29 -2.9 26.7
17:30 1015 29.97 845 24.95 14.9 58.8 28 -3.2 26.3
17:35 1015 29.97 845 24.95 14.9 58.7 29 -3 26.7
17:40 1015 29.97 845 24.95 14.8 58.6 29 -3.2 26.3
17:45 1015 29.97 844 24.92 14.8 58.6 29 -3.1 26.3
17:50 1015 29.97 844 24.92 14.7 58.5 29 -3.1 26.4
17:55 1015 29.97 844 24.92 14.6 58.4 29 -3 26.6
18:00 1015 29.97 844 24.92 14.5 58.1 30 -2.8 26.9
18:05 1015 29.97 844 24.92 14.4 58 30 -2.9 26.8
18:10 1015 29.97 844 24.92 14.5 58.1 31 -2.5 27.4
18:15 1015 29.97 844 24.92 14.4 58 30 -2.7 27.1
18:20 1015 29.97 844 24.92 14.5 58 31 -2.5 27.5
18:25 1015 29.97 844 24.92 14.4 57.8 31 -2.3 27.8
18:30 1015 29.97 845 24.95 14.2 57.6 32 -2.3 27.9
18:35 1015 29.97 845 24.95 14.1 57.4 32 -2.2 28
18:40 1015 29.97 845 24.95 14 57.2 34 -1.7 28.9
18:45 1015 29.97 844 24.92 13.8 56.9 33 -2 28.5
18:50 1015 29.97 844 24.92 14.3 57.7 32 -2.1 28.3
18:55 1015 29.97 844 24.92 14.5 58.1 32 -1.9 28.6
19:00 1015 29.97 844 24.92 14.4 57.8 34 -1.4 29.5
19:05 1015 29.97 844 24.92 14.3 57.7 33 -1.8 28.7
19:10 1015 29.97 844 24.92 14.4 57.8 32 -1.9 28.6
19:15 1015 29.97 844 24.92 14.3 57.7 33 -1.6 29.1
19:20 1015 29.97 845 24.95 14.2 57.5 33 -1.9 28.6
19:25 1015 29.97 845 24.95 14.3 57.7 33 -1.9 28.6
19:30 1015 29.97 845 24.95 14.2 57.6 33 -1.8 28.8
19:35 1015 29.97 845 24.95 14.2 57.6 33 -1.9 28.6
19:40 1016 30 845 24.95 14.2 57.5 33 -1.8 28.7
19:45 1016 30 845 24.95 14.3 57.8 32 -2.2 28.1
19:50 1016 30 845 24.95 14.5 58.2 31 -2.4 27.7
19:55 1016 30 845 24.95 14.7 58.4 31 -2 28.4
20:00 1016 30 845 24.95 14.6 58.2 31 -2.1 28.2
20:05 1016 30 845 24.95 14.6 58.3 31 -2.1 28.2
20:10 1016 30 845 24.95 14.6 58.3 31 -2.1 28.3
20:15 1016 30 845 24.95 14.4 57.8 33 -1.7 29
20:20 1016 30 845 24.95 14.1 57.4 33 -2 28.4
20:25 1016 30 845 24.95 14.1 57.3 32 -2.3 27.9
20:30 1015 29.97 845 24.95 14.1 57.4 33 -1.9 28.6
20:35 1016 30 845 24.95 14.1 57.4 33 -1.8 28.8
20:40 1016 30 845 24.95 14 57.2 34 -1.7 29
20:45 1016 30 845 24.95 13.9 57.1 34 -1.8 28.8
20:50 1016 30 845 24.95 13.9 56.9 34 -1.5 29.2
20:55 1016 30 845 24.95 13.7 56.7 35 -1.5 29.4
21:00 1016 30 845 24.95 13.6 56.5 35 -1.5 29.2
21:05 1016 30 845 24.95 13.6 56.4 35 -1.7 29
21:10 1016 30 845 24.95 13.6 56.4 35 -1.6 29.1
21:15 1016 30 845 24.95 13.5 56.4 35 -1.4 29.4
21:20 1016 30 845 24.95 13.4 56.2 36 -1.3 29.6
21:25 1016 30 845 24.95 13.4 56.1 36 -1.3 29.6
21:30 1016 30 845 24.95 13.3 56 35 -1.6 29.1
21:35 1016 30 845 24.95 13.4 56 35 -1.5 29.2
21:40 1016 30 845 24.95 13.4 56.1 35 -1.8 28.8
21:45 1016 30 845 24.95 13.4 56.2 35 -1.6 29.2
21:50 1016 30 845 24.95 13.5 56.2 35 -1.5 29.2
21:55 1016 30 845 24.95 13.5 56.3 35 -1.6 29.1
22:00 1016 30 846 24.98 13.5 56.2 37 -0.8 30.6
22:05 1016 30 846 24.98 13.1 55.6 37 -1.1 30.1
22:10 1016 30 846 24.98 12.8 55.1 39 -0.8 30.5
22:15 1016 30 846 24.98 12.7 54.8 39 -0.8 30.6
22:20 1016 30 846 24.98 12.7 54.8 39 -0.8 30.5
22:25 1016 30 846 24.98 12.7 54.8 39 -0.7 30.7
22:30 1016 30 845 24.95 12.6 54.6 40 -0.6 30.9
22:35 1016 30 845 24.95 12.5 54.5 41 -0.4 31.3
22:40 1016 30 845 24.95 12.4 54.3 42 -0.2 31.6
22:45 1016 30 846 24.98 12.3 54.1 43 -0 32
22:50 1016 30 846 24.98 12.1 53.8 44 0.3 32.6
22:55 1016 30 846 24.98 12 53.7 45 0.5 33
23:00 1016 30 845 24.95 12 53.6 46 0.7 33.2
23:05 1016 30 845 24.95 11.9 53.4 47 0.8 33.5
23:10 1016 30 846 24.98 11.8 53.3 47 0.8 33.5
23:15 1016 30 845 24.95 11.9 53.4 47 0.9 33.6
23:20 1016 30 845 24.95 11.9 53.3 46 0.5 33
23:25 1016 30 845 24.95 12 53.6 46 0.8 33.4
23:30 1016 30 845 24.95 11.8 53.3 47 0.8 33.5
23:35 1016 30 845 24.95 11.8 53.2 47 0.9 33.6
23:40 1016 30 846 24.98 11.7 53.1 48 1 33.9
23:45 1016 30 846 24.98 11.8 53.2 47 0.8 33.4
23:50 1017 30.03 846 24.98 11.8 53.3 46 0.8 33.4
23:55 1017 30.03 846 24.98 11.9 53.3 46 0.8 33.4
24:00 1017 30.03 846 24.98 11.8 53.3 47 0.8 33.4